Airport View

Enter AWOS ICAO identifier for current METAR.

ex. KFNL

K3AU 190635Z AUTO 35013KT 10SM SCT050 08/03 A3001 RMK AO2

19 Apr 2019 07:01

Frequency: 124.175

Phone: 316-733-6696

Other Area AWOS: K1K1 - KBEC - KAAO - KIAB

TAF KIAB 190200Z 1902/2008 34015G25KT 9999 BKN050 QNH2991INS BECMG 1908/1909 34012KT 9999 SCT050 QNH2994INS BECMG 1914/1915 35020G25KT 9999 SKC 510053 QNH3004INS BECMG 1923/1924 VRB06KT 9999 SKC QNH3001INS TX17/1921Z TN06/1912Z